Time;durP1;ratioP1;P1;durP2;ratioP2;P2;SDS_P1;SDS_P2;PMS_P1;PMS_P2;Temp;Humidity;BMP_temperature;BMP_pressure;BME280_temperature;BME280_humidity;BME280_pressure;Samples;Min_cycle;Max_cycle;Signal;HPM_P1;HPM_P2
2021/05/04 00:01:28;;;;;;;4.47;2.78;;;11.80;97.80;;;;;;5016201;28;20484;-69
2021/05/04 00:03:54;;;;;;;7.00;3.53;;;11.80;97.80;;;;;;5027089;28;20018;-69
2021/05/04 00:06:19;;;;;;;5.70;3.63;;;11.70;97.80;;;;;;5014741;28;20575;-70
2021/05/04 00:08:45;;;;;;;4.75;2.92;;;11.70;97.80;;;;;;5016399;28;20037;-69
2021/05/04 00:11:11;;;;;;;5.22;3.20;;;11.50;98.10;;;;;;5022094;28;20053;-69
2021/05/04 00:13:37;;;;;;;5.63;3.58;;;11.40;98.40;;;;;;5023280;28;20028;-69
2021/05/04 00:16:03;;;;;;;6.63;3.40;;;11.40;98.60;;;;;;5023817;28;20042;-68
2021/05/04 00:18:29;;;;;;;6.63;3.60;;;11.30;98.80;;;;;;5022062;28;20079;-69
2021/05/04 00:20:55;;;;;;;6.45;3.25;;;11.40;98.80;;;;;;5020165;28;20026;-69
2021/05/04 00:23:21;;;;;;;6.75;3.20;;;11.40;98.70;;;;;;5019031;28;20040;-69
2021/05/04 00:25:47;;;;;;;5.30;3.20;;;11.20;98.90;;;;;;5015525;28;20060;-69
2021/05/04 00:28:12;;;;;;;6.15;3.28;;;11.20;99.10;;;;;;5020007;28;20033;-69
2021/05/04 00:30:38;;;;;;;6.78;3.85;;;11.10;99.20;;;;;;5019952;28;20392;-69
2021/05/04 00:33:04;;;;;;;6.38;2.95;;;11.20;99.30;;;;;;5016396;28;20018;-70
2021/05/04 00:35:29;;;;;;;5.70;3.10;;;11.10;99.40;;;;;;5014159;28;20037;-69
2021/05/04 00:37:55;;;;;;;6.30;3.58;;;11.30;99.30;;;;;;5013699;28;20085;-69
2021/05/04 00:40:21;;;;;;;5.28;2.80;;;11.20;99.30;;;;;;5013640;28;20506;-69
2021/05/04 00:42:47;;;;;;;4.95;2.83;;;11.30;99.10;;;;;;5015143;28;20065;-69
2021/05/04 00:45:13;;;;;;;6.15;3.22;;;11.20;99.30;;;;;;5011917;28;20030;-69
2021/05/04 00:47:39;;;;;;;6.38;3.67;;;11.30;99.00;;;;;;5012923;28;20052;-69
2021/05/04 00:50:05;;;;;;;6.47;3.30;;;11.30;98.90;;;;;;5016662;28;20481;-69
2021/05/04 00:52:31;;;;;;;5.95;3.45;;;11.40;99.00;;;;;;5017372;28;20064;-69
2021/05/04 00:54:58;;;;;;;7.32;3.08;;;11.20;99.10;;;;;;5016648;28;20037;-69
2021/05/04 00:57:24;;;;;;;5.05;3.20;;;11.20;99.30;;;;;;5014073;28;20524;-69
2021/05/04 00:59:51;;;;;;;5.32;3.00;;;11.20;99.30;;;;;;5013631;28;20100;-69
2021/05/04 01:02:17;;;;;;;5.25;3.00;;;11.20;99.20;;;;;;5012642;28;20531;-69
2021/05/04 01:04:45;;;;;;;6.78;3.75;;;11.20;99.30;;;;;;5015274;28;20043;-69
2021/05/04 01:07:10;;;;;;;6.25;3.50;;;11.10;99.40;;;;;;5013501;28;20365;-69
2021/05/04 01:09:36;;;;;;;6.00;3.13;;;11.10;99.50;;;;;;5012723;28;20088;-69
2021/05/04 01:12:02;;;;;;;6.28;3.13;;;11.10;99.60;;;;;;5012977;28;20104;-69
2021/05/04 01:14:28;;;;;;;4.30;2.42;;;11.00;99.70;;;;;;5014274;28;20106;-69
2021/05/04 01:16:55;;;;;;;7.35;3.25;;;11.00;99.90;;;;;;5022956;28;20104;-69
2021/05/04 01:19:22;;;;;;;7.32;3.80;;;11.00;99.50;;;;;;5020368;28;20030;-69
2021/05/04 01:21:48;;;;;;;5.90;3.38;;;11.00;99.60;;;;;;5023187;28;20060;-70
2021/05/04 01:24:15;;;;;;;6.25;3.28;;;11.10;99.50;;;;;;5012725;28;20057;-69
2021/05/04 01:26:46;;;;;;;5.40;3.13;;;11.10;99.50;;;;;;5013242;28;20053;-69
2021/05/04 01:29:12;;;;;;;6.30;3.45;;;11.10;99.50;;;;;;5015258;28;20029;-69
2021/05/04 01:31:39;;;;;;;6.50;3.60;;;11.10;99.50;;;;;;5018473;28;20034;-69
2021/05/04 01:34:06;;;;;;;8.52;3.65;;;11.20;99.40;;;;;;5015260;28;20026;-69
2021/05/04 01:36:33;;;;;;;5.95;3.17;;;11.20;99.50;;;;;;5019118;28;20100;-69
2021/05/04 01:38:59;;;;;;;5.57;2.80;;;11.20;99.50;;;;;;5019254;28;20605;-69
2021/05/04 01:41:25;;;;;;;5.05;2.92;;;11.20;99.40;;;;;;5014629;28;20034;-69
2021/05/04 01:43:50;;;;;;;11.63;3.83;;;11.20;99.40;;;;;;5014009;28;20029;-69
2021/05/04 01:46:16;;;;;;;6.30;3.38;;;11.20;99.40;;;;;;5012332;28;20029;-72
2021/05/04 01:48:42;;;;;;;4.85;2.75;;;11.20;99.60;;;;;;5016271;28;20030;-71
2021/05/04 01:51:08;;;;;;;5.35;3.70;;;11.30;99.50;;;;;;5015279;28;20030;-70
2021/05/04 01:53:34;;;;;;;6.43;3.30;;;11.40;99.40;;;;;;5017512;28;20032;-71
2021/05/04 01:55:59;;;;;;;6.72;3.05;;;11.50;99.10;;;;;;5012423;28;20439;-71
2021/05/04 01:58:25;;;;;;;5.65;2.95;;;11.50;98.90;;;;;;5020932;28;20530;-71
2021/05/04 02:00:51;;;;;;;6.15;3.58;;;11.50;99.20;;;;;;5018775;28;20021;-71
2021/05/04 02:03:17;;;;;;;6.05;3.35;;;11.50;99.10;;;;;;5018582;28;20056;-71
2021/05/04 02:05:42;;;;;;;7.47;2.97;;;11.50;99.20;;;;;;5022048;28;20083;-71
2021/05/04 02:08:08;;;;;;;5.43;2.65;;;11.40;99.50;;;;;;5016449;28;20080;-71
2021/05/04 02:10:34;;;;;;;4.82;2.83;;;11.30;99.50;;;;;;5016732;28;20040;-71
2021/05/04 02:12:59;;;;;;;4.57;3.03;;;11.20;99.90;;;;;;5021486;28;20400;-71
2021/05/04 02:15:26;;;;;;;6.40;3.28;;;11.20;99.90;;;;;;5014670;28;20030;-71
2021/05/04 02:17:51;;;;;;;7.95;3.25;;;11.20;99.90;;;;;;5016757;28;20407;-71
2021/05/04 02:20:17;;;;;;;4.90;2.70;;;11.10;99.90;;;;;;5018217;28;20030;-71
2021/05/04 02:22:43;;;;;;;5.18;2.95;;;11.00;99.90;;;;;;5012189;28;20025;-70
2021/05/04 02:25:10;;;;;;;7.13;4.00;;;11.00;99.90;;;;;;5012582;28;20033;-71
2021/05/04 02:27:35;;;;;;;6.43;3.40;;;11.00;99.90;;;;;;5011988;28;20021;-71
2021/05/04 02:30:03;;;;;;;7.15;3.25;;;11.00;99.90;;;;;;5019620;28;20037;-71
2021/05/04 02:32:35;;;;;;;9.00;3.65;;;11.00;99.90;;;;;;5011008;28;20097;-70
2021/05/04 02:35:02;;;;;;;6.13;2.92;;;11.00;99.90;;;;;;5022518;28;20026;-71
2021/05/04 02:37:28;;;;;;;6.70;3.25;;;11.00;99.90;;;;;;5014586;28;20160;-71
2021/05/04 02:39:54;;;;;;;6.60;3.28;;;11.00;99.90;;;;;;5011650;28;20552;-71
2021/05/04 02:42:19;;;;;;;7.65;3.75;;;11.00;99.90;;;;;;5011385;28;20128;-71
2021/05/04 02:44:45;;;;;;;5.93;3.03;;;11.10;99.90;;;;;;5011734;28;20105;-70
2021/05/04 02:47:11;;;;;;;5.72;3.05;;;11.00;99.90;;;;;;5020631;28;20025;-71
2021/05/04 02:49:36;;;;;;;5.38;3.38;;;11.00;99.90;;;;;;5017101;28;20512;-71
2021/05/04 02:52:03;;;;;;;6.43;3.30;;;11.00;99.90;;;;;;5011348;28;20376;-71
2021/05/04 02:54:29;;;;;;;5.13;3.28;;;10.90;99.90;;;;;;5018879;28;20030;-71
2021/05/04 02:56:55;;;;;;;5.53;3.28;;;10.70;99.90;;;;;;5011405;28;20022;-70
2021/05/04 02:59:20;;;;;;;5.43;3.45;;;10.70;99.90;;;;;;5017634;28;20025;-71
2021/05/04 03:01:46;;;;;;;5.38;3.28;;;10.70;99.90;;;;;;5024607;28;20081;-71
2021/05/04 03:04:12;;;;;;;8.80;3.67;;;10.70;99.90;;;;;;5017282;28;20087;-71
2021/05/04 03:06:38;;;;;;;7.57;3.28;;;10.70;99.90;;;;;;5018032;28;20109;-71
2021/05/04 03:09:04;;;;;;;6.15;3.70;;;10.70;99.90;;;;;;5008567;28;20037;-72
2021/05/04 03:11:29;;;;;;;5.80;2.67;;;10.60;99.90;;;;;;5016552;28;20065;-72
2021/05/04 03:13:55;;;;;;;5.28;3.13;;;10.60;99.90;;;;;;5013328;28;20048;-71
2021/05/04 03:16:21;;;;;;;6.72;3.10;;;10.50;99.90;;;;;;5012315;28;20588;-72
2021/05/04 03:18:47;;;;;;;5.78;3.08;;;10.50;99.90;;;;;;5013777;28;20106;-71
2021/05/04 03:21:12;;;;;;;8.85;3.28;;;10.40;99.90;;;;;;5017353;28;20048;-71
2021/05/04 03:23:38;;;;;;;6.03;3.20;;;10.30;99.90;;;;;;5012816;28;20037;-71
2021/05/04 03:26:04;;;;;;;6.13;3.88;;;10.30;99.90;;;;;;5007726;28;20479;-71
2021/05/04 03:28:29;;;;;;;8.57;3.17;;;10.20;99.90;;;;;;5013728;28;20068;-71
2021/05/04 03:30:55;;;;;;;6.32;2.97;;;10.20;99.90;;;;;;5007542;28;20518;-71
2021/05/04 03:33:21;;;;;;;7.18;3.17;;;10.20;99.90;;;;;;5007305;28;20112;-71
2021/05/04 03:35:46;;;;;;;4.90;2.83;;;10.30;99.90;;;;;;5014398;28;20364;-71
2021/05/04 03:38:12;;;;;;;6.30;3.00;;;10.30;99.90;;;;;;5011557;28;20473;-71
2021/05/04 03:40:38;;;;;;;5.50;3.22;;;10.30;99.90;;;;;;5013559;28;20026;-71
2021/05/04 03:43:04;;;;;;;5.20;2.92;;;10.20;99.90;;;;;;5013961;28;20396;-71
2021/05/04 03:45:30;;;;;;;6.57;4.15;;;10.20;99.90;;;;;;5008053;28;20036;-72
2021/05/04 03:47:56;;;;;;;8.65;3.88;;;10.20;99.90;;;;;;5007107;28;20056;-71
2021/05/04 03:50:24;;;;;;;5.72;3.55;;;10.10;99.90;;;;;;5009280;28;20018;-71
2021/05/04 03:52:51;;;;;;;8.48;3.22;;;10.10;99.90;;;;;;5012217;28;20440;-71
2021/05/04 03:55:18;;;;;;;7.03;3.40;;;10.00;99.90;;;;;;5010304;28;20040;-71
2021/05/04 03:57:44;;;;;;;6.30;3.80;;;10.00;99.90;;;;;;5007182;28;20058;-72
2021/05/04 04:00:13;;;;;;;7.43;3.53;;;10.10;99.90;;;;;;5006407;28;20033;-71
2021/05/04 04:02:39;;;;;;;6.30;3.30;;;10.10;99.90;;;;;;5011357;28;20037;-71
2021/05/04 04:05:05;;;;;;;7.97;3.65;;;10.20;99.90;;;;;;5013270;28;20021;-71
2021/05/04 04:07:31;;;;;;;5.80;3.30;;;10.20;99.90;;;;;;5013387;28;20099;-71
2021/05/04 04:09:57;;;;;;;6.40;3.67;;;10.20;99.90;;;;;;5007025;28;20061;-71
2021/05/04 04:12:24;;;;;;;5.70;3.28;;;10.10;99.90;;;;;;5017025;28;20060;-71
2021/05/04 04:14:51;;;;;;;6.38;3.35;;;10.10;99.90;;;;;;5011784;28;20038;-71
2021/05/04 04:17:16;;;;;;;6.82;3.47;;;10.30;99.90;;;;;;5011764;28;20030;-71
2021/05/04 04:19:42;;;;;;;7.80;3.20;;;10.20;99.90;;;;;;5012909;28;20124;-71
2021/05/04 04:22:08;;;;;;;7.97;3.83;;;10.20;99.90;;;;;;5006559;28;20032;-71
2021/05/04 04:24:33;;;;;;;6.95;3.38;;;10.20;99.90;;;;;;5008279;28;20022;-71
2021/05/04 04:26:59;;;;;;;5.45;2.92;;;10.30;99.90;;;;;;5012883;28;20029;-71
2021/05/04 04:29:25;;;;;;;6.43;3.40;;;10.30;99.90;;;;;;5006873;28;20072;-71
2021/05/04 04:31:52;;;;;;;6.38;4.07;;;10.30;99.90;;;;;;5006929;28;20022;-71
2021/05/04 04:34:18;;;;;;;8.80;4.07;;;10.30;99.90;;;;;;5005912;28;20948;-72
2021/05/04 04:36:44;;;;;;;7.78;4.03;;;10.30;99.90;;;;;;5010656;28;20104;-71
2021/05/04 04:39:10;;;;;;;7.60;3.30;;;10.30;99.90;;;;;;5014924;28;20100;-71
2021/05/04 04:41:35;;;;;;;5.93;3.20;;;10.30;99.90;;;;;;5006436;28;20110;-71
2021/05/04 04:44:03;;;;;;;7.53;4.15;;;10.30;99.90;;;;;;5005994;28;20497;-71
2021/05/04 04:46:39;;;;;;;7.10;3.72;;;10.40;99.90;;;;;;5021124;28;20029;-71
2021/05/04 04:49:23;;;;;;;7.70;4.18;;;10.40;99.90;;;;;;5008847;28;20065;-72
2021/05/04 04:51:49;;;;;;;9.57;4.57;;;10.30;99.90;;;;;;5006241;28;20025;-71
2021/05/04 04:54:15;;;;;;;7.85;3.95;;;10.40;99.90;;;;;;5005813;28;20032;-71
2021/05/04 04:56:41;;;;;;;6.20;4.10;;;10.30;99.90;;;;;;5010431;28;20026;-71
2021/05/04 04:59:08;;;;;;;7.18;4.28;;;10.50;99.90;;;;;;5007946;28;20085;-71
2021/05/04 05:01:35;;;;;;;7.75;4.45;;;10.40;99.90;;;;;;5013673;28;20032;-71
2021/05/04 05:04:02;;;;;;;7.53;4.28;;;10.30;99.90;;;;;;5008867;28;20538;-71
2021/05/04 05:06:28;;;;;;;7.80;3.70;;;10.40;99.90;;;;;;5005942;28;20025;-71
2021/05/04 05:08:53;;;;;;;5.85;3.05;;;10.40;99.90;;;;;;5007487;28;20380;-71
2021/05/04 05:11:20;;;;;;;11.63;3.95;;;10.60;99.90;;;;;;5019372;28;20058;-71
2021/05/04 05:13:46;;;;;;;5.75;3.28;;;10.70;99.90;;;;;;5018448;28;20037;-71
2021/05/04 05:16:14;;;;;;;9.00;3.63;;;10.70;99.90;;;;;;5012858;28;20032;-71
2021/05/04 05:18:40;;;;;;;6.95;3.17;;;10.80;99.90;;;;;;5008864;28;20036;-71
2021/05/04 05:21:07;;;;;;;6.45;3.40;;;10.90;99.90;;;;;;5009390;28;20029;-72
2021/05/04 05:23:33;;;;;;;7.82;3.17;;;11.00;99.90;;;;;;5006806;28;20022;-72
2021/05/04 05:26:03;;;;;;;7.82;4.05;;;11.00;99.90;;;;;;5008573;28;20021;-72
2021/05/04 05:28:29;;;;;;;5.80;3.17;;;10.90;99.90;;;;;;5013624;28;20067;-71
2021/05/04 05:30:55;;;;;;;7.10;3.15;;;10.90;99.90;;;;;;5016498;28;20026;-71
2021/05/04 05:33:21;;;;;;;6.43;2.95;;;10.90;99.90;;;;;;5008746;28;20069;-73
2021/05/04 05:35:47;;;;;;;7.43;3.25;;;10.80;99.90;;;;;;5012607;28;20988;-73
2021/05/04 05:38:13;;;;;;;8.82;3.50;;;10.70;99.90;;;;;;5012402;28;20059;-72
2021/05/04 05:40:38;;;;;;;6.32;2.75;;;10.70;99.90;;;;;;5005081;28;20796;-75
2021/05/04 05:43:04;;;;;;;4.50;2.72;;;10.70;99.90;;;;;;5005798;28;20034;-72
2021/05/04 05:45:30;;;;;;;5.80;3.47;;;10.80;99.90;;;;;;5005129;28;20606;-72
2021/05/04 05:47:56;;;;;;;8.20;2.85;;;10.90;99.90;;;;;;5004512;28;20097;-72
2021/05/04 05:50:22;;;;;;;6.47;2.78;;;10.90;99.90;;;;;;5004294;28;20113;-73
2021/05/04 05:52:47;;;;;;;7.63;3.40;;;10.90;99.90;;;;;;5021856;28;20040;-72
2021/05/04 05:55:13;;;;;;;5.72;3.15;;;10.90;99.90;;;;;;5023832;28;20045;-73
2021/05/04 05:57:39;;;;;;;5.65;2.72;;;11.00;99.90;;;;;;5024030;28;20025;-72
2021/05/04 06:00:06;;;;;;;8.80;3.75;;;10.90;99.90;;;;;;5024184;28;20032;-72
2021/05/04 06:02:32;;;;;;;6.32;3.15;;;11.10;99.90;;;;;;5019611;28;20130;-73
2021/05/04 06:04:58;;;;;;;10.95;3.72;;;11.10;99.90;;;;;;5023774;28;20060;-72
2021/05/04 06:07:23;;;;;;;4.70;3.08;;;11.10;99.90;;;;;;5024002;28;20061;-74
2021/05/04 06:09:49;;;;;;;6.32;3.03;;;11.20;99.90;;;;;;5024488;28;20045;-72
2021/05/04 06:12:15;;;;;;;7.13;3.58;;;11.20;99.90;;;;;;5004697;28;20626;-72
2021/05/04 06:14:41;;;;;;;7.90;3.70;;;11.50;99.90;;;;;;5004177;28;20033;-75
2021/05/04 06:17:06;;;;;;;5.88;3.60;;;11.70;99.90;;;;;;5003828;28;20085;-72
2021/05/04 06:19:32;;;;;;;5.75;3.50;;;12.00;99.90;;;;;;5004096;28;20022;-73
2021/05/04 06:21:58;;;;;;;4.97;3.20;;;12.10;99.90;;;;;;5003986;28;20026;-72
2021/05/04 06:24:24;;;;;;;5.60;2.67;;;12.20;99.90;;;;;;5004244;28;20388;-72
2021/05/04 06:26:50;;;;;;;5.43;3.17;;;12.50;99.90;;;;;;5003948;28;20033;-72
2021/05/04 06:29:15;;;;;;;8.50;2.92;;;12.70;99.90;;;;;;5002981;28;20046;-72
2021/05/04 06:31:42;;;;;;;9.50;4.05;;;12.80;99.90;;;;;;5004153;28;20034;-72
2021/05/04 06:34:10;;;;;;;5.65;3.03;;;13.00;99.90;;;;;;5003885;28;20558;-72
2021/05/04 06:36:36;;;;;;;5.78;2.80;;;13.10;99.90;;;;;;5004043;28;20121;-72
2021/05/04 06:39:02;;;;;;;6.25;2.58;;;13.20;99.90;;;;;;5003341;28;20160;-73
2021/05/04 06:41:34;;;;;;;6.13;2.97;;;13.40;99.90;;;;;;5002928;28;20025;-73
2021/05/04 06:44:01;;;;;;;4.50;2.95;;;13.40;99.70;;;;;;5003735;28;20065;-73
2021/05/04 06:46:29;;;;;;;5.40;2.83;;;13.70;99.70;;;;;;5022993;28;20034;-73
2021/05/04 06:48:55;;;;;;;6.60;3.45;;;13.90;98.90;;;;;;5013038;28;20704;-71
2021/05/04 06:51:21;;;;;;;6.85;3.85;;;14.00;99.60;;;;;;5003769;28;20026;-72
2021/05/04 06:53:46;;;;;;;8.98;3.65;;;14.00;99.90;;;;;;5003857;28;20034;-71
2021/05/04 06:56:12;;;;;;;7.20;3.55;;;14.10;99.30;;;;;;5022866;28;20104;-71
2021/05/04 06:58:38;;;;;;;7.63;3.83;;;14.10;99.50;;;;;;5023443;28;20030;-71
2021/05/04 07:01:03;;;;;;;8.57;3.50;;;13.80;99.90;;;;;;5023255;28;20637;-72
2021/05/04 07:03:29;;;;;;;40.42;5.90;;;14.40;99.90;;;;;;5003803;28;20022;-75
2021/05/04 07:05:55;;;;;;;7.57;4.03;;;14.80;99.60;;;;;;5004338;28;20033;-72
2021/05/04 07:08:21;;;;;;;5.80;3.25;;;14.40;98.90;;;;;;5004016;28;20044;-72
2021/05/04 07:10:46;;;;;;;8.30;4.18;;;15.20;98.20;;;;;;5004164;28;20038;-72
2021/05/04 07:13:16;;;;;;;6.25;3.22;;;16.60;96.40;;;;;;5003989;28;20500;-74
2021/05/04 07:15:42;;;;;;;5.07;2.88;;;17.50;95.30;;;;;;5003748;28;20022;-73
2021/05/04 07:18:10;;;;;;;5.47;3.15;;;19.10;93.40;;;;;;5004780;28;20580;-75
2021/05/04 07:20:36;;;;;;;6.53;3.58;;;19.10;92.20;;;;;;5023702;28;20658;-73
2021/05/04 07:23:05;;;;;;;8.15;3.60;;;19.60;91.30;;;;;;5013404;28;20657;-74
2021/05/04 07:25:30;;;;;;;5.18;3.28;;;20.40;90.40;;;;;;5013225;28;20161;-73
2021/05/04 07:27:57;;;;;;;7.07;3.40;;;20.90;88.90;;;;;;5023562;28;20112;-74
2021/05/04 07:30:23;;;;;;;7.95;3.40;;;20.90;87.00;;;;;;5007250;28;20026;-74
2021/05/04 07:32:49;;;;;;;6.40;3.40;;;21.00;85.80;;;;;;5004218;28;20032;-73
2021/05/04 07:35:15;;;;;;;6.25;3.08;;;21.10;86.60;;;;;;5006213;28;20022;-76
2021/05/04 07:37:41;;;;;;;7.28;3.47;;;21.10;85.50;;;;;;5023856;28;20029;-72
2021/05/04 07:40:08;;;;;;;6.00;3.70;;;21.00;84.80;;;;;;5019733;28;20018;-74
2021/05/04 07:42:34;;;;;;;6.97;3.42;;;20.80;83.90;;;;;;5023293;28;20037;-72
2021/05/04 07:45:01;;;;;;;5.63;3.28;;;21.00;83.30;;;;;;5023812;28;20507;-72
2021/05/04 07:47:26;;;;;;;7.55;3.47;;;19.30;84.50;;;;;;5023392;28;20080;-74
2021/05/04 07:49:52;;;;;;;7.43;3.45;;;17.40;90.20;;;;;;5004798;28;20042;-73
2021/05/04 07:52:18;;;;;;;26.95;5.45;;;16.50;91.00;;;;;;5006804;28;20135;-75
2021/05/04 07:54:45;;;;;;;9.45;3.95;;;15.80;92.60;;;;;;5009431;28;20623;-77
2021/05/04 07:57:12;;;;;;;6.13;3.53;;;15.70;93.00;;;;;;5007680;28;20026;-73
2021/05/04 07:59:37;;;;;;;12.68;4.45;;;15.60;93.30;;;;;;5019489;28;20026;-71
2021/05/04 08:02:03;;;;;;;8.40;3.55;;;15.30;94.00;;;;;;5026328;28;20304;-72
2021/05/04 08:04:30;;;;;;;5.97;3.70;;;15.10;94.20;;;;;;5027213;28;20368;-71
2021/05/04 08:06:57;;;;;;;9.52;4.72;;;14.70;94.60;;;;;;5026943;28;20103;-72
2021/05/04 08:09:25;;;;;;;21.20;5.50;;;15.10;95.00;;;;;;5019133;28;20049;-72
2021/05/04 08:11:50;;;;;;;7.43;3.33;;;15.80;94.70;;;;;;5027061;28;20595;-71
2021/05/04 08:14:17;;;;;;;10.98;3.72;;;16.20;94.50;;;;;;5026799;28;20036;-73
2021/05/04 08:16:43;;;;;;;7.55;3.60;;;17.40;92.10;;;;;;5012889;28;20084;-73
2021/05/04 08:19:09;;;;;;;5.13;3.08;;;18.10;91.10;;;;;;5007100;28;20033;-72
2021/05/04 08:21:35;;;;;;;9.43;4.53;;;18.50;90.60;;;;;;5007684;28;20060;-71
2021/05/04 08:24:02;;;;;;;8.95;3.53;;;18.90;89.80;;;;;;5006985;28;20022;-71
2021/05/04 08:26:28;;;;;;;6.90;4.13;;;19.40;89.60;;;;;;5010344;28;20533;-71
2021/05/04 08:28:57;;;;;;;6.80;3.65;;;19.70;90.00;;;;;;5025573;28;20037;-75
2021/05/04 08:31:24;;;;;;;6.18;3.63;;;19.00;87.80;;;;;;5007076;28;20385;-75
2021/05/04 08:33:50;;;;;;;5.50;3.63;;;19.20;88.30;;;;;;5007206;28;20022;-77
2021/05/04 08:36:16;;;;;;;14.35;4.78;;;18.20;87.90;;;;;;5006970;28;20033;-75
2021/05/04 08:38:41;;;;;;;6.93;4.03;;;18.10;89.30;;;;;;5006612;28;20022;-74
2021/05/04 08:41:08;;;;;;;6.60;3.33;;;17.90;90.30;;;;;;5006662;28;20033;-74
2021/05/04 08:43:34;;;;;;;5.55;3.97;;;17.50;90.90;;;;;;5011369;28;20037;-75
2021/05/04 08:46:01;;;;;;;8.95;4.20;;;16.80;91.00;;;;;;5026906;28;20029;-71
2021/05/04 08:48:27;;;;;;;7.95;3.63;;;16.90;91.80;;;;;;5014153;28;20117;-72
2021/05/04 08:50:55;;;;;;;7.13;3.85;;;17.10;91.10;;;;;;5010830;28;20030;-72
2021/05/04 08:53:21;;;;;;;6.45;3.70;;;17.40;91.30;;;;;;5005622;28;20034;-73
2021/05/04 08:55:47;;;;;;;10.05;4.10;;;17.10;90.80;;;;;;5012688;28;20032;-72
2021/05/04 08:58:13;;;;;;;7.82;4.10;;;16.80;91.00;;;;;;5025507;28;20104;-70
2021/05/04 09:00:39;;;;;;;7.38;4.00;;;16.60;91.10;;;;;;5020631;28;20911;-72
2021/05/04 09:03:32;;;;;;;9.02;3.42;;;17.10;91.80;;;;;;5028731;28;20029;-72
2021/05/04 09:08:45;;;;;;;6.43;3.30;;;16.80;91.70;;;;;;5006003;28;20042;-72
2021/05/04 09:11:23;;;;;;;8.05;3.47;;;17.30;92.20;;;;;;5005842;28;20026;-72
2021/05/04 09:13:56;;;;;;;7.03;3.63;;;17.30;90.60;;;;;;5006278;28;20610;-71
2021/05/04 09:19:14;;;;;;;9.27;4.10;;;17.40;91.40;;;;;;5022875;28;20672;-72
2021/05/04 09:21:42;;;;;;;5.90;3.60;;;17.50;90.70;;;;;;5025864;28;20017;-72
2021/05/04 09:24:29;;;;;;;6.28;2.90;;;17.30;90.20;;;;;;5025554;28;20296;-72
2021/05/04 09:27:00;;;;;;;5.97;3.17;;;17.70;91.00;;;;;;5015185;28;20360;-72
2021/05/04 09:29:32;;;;;;;8.70;3.78;;;18.10;91.40;;;;;;5005542;28;20584;-71
2021/05/04 09:32:20;;;;;;;6.63;2.70;;;18.20;91.20;;;;;;5005458;28;20098;-72
2021/05/04 09:35:02;;;;;;;10.52;3.15;;;18.50;89.10;;;;;;5006716;28;20057;-72
2021/05/04 09:37:35;;;;;;;9.25;2.35;;;19.00;89.80;;;;;;5007824;28;20026;-71
2021/05/04 09:40:23;;;;;;;8.20;3.55;;;18.90;88.50;;;;;;5005000;28;20108;-72
2021/05/04 09:43:07;;;;;;;6.00;2.22;;;18.80;87.50;;;;;;5024008;28;20076;-72
2021/05/04 09:45:36;;;;;;;7.00;2.42;;;18.60;82.80;;;;;;5025282;28;20033;-73
2021/05/04 09:48:12;;;;;;;18.33;2.63;;;18.50;84.10;;;;;;5012466;28;20124;-72
2021/05/04 09:51:04;;;;;;;11.20;2.58;;;18.60;85.30;;;;;;5005584;28;20048;-73
2021/05/04 09:53:41;;;;;;;3.70;1.80;;;18.90;83.60;;;;;;5012601;28;20097;-72
2021/05/04 09:56:09;;;;;;;11.93;2.17;;;18.90;79.10;;;;;;5004972;28;20018;-72
2021/05/04 09:58:36;;;;;;;6.10;2.22;;;19.20;80.10;;;;;;5005376;28;20026;-72
2021/05/04 10:01:05;;;;;;;5.57;2.17;;;19.30;79.40;;;;;;5005213;28;20026;-73
2021/05/04 10:03:31;;;;;;;6.78;2.25;;;19.40;81.60;;;;;;5005394;28;20048;-72
2021/05/04 10:06:01;;;;;;;4.47;1.80;;;19.40;78.60;;;;;;5004970;28;20026;-72
2021/05/04 10:08:28;;;;;;;5.28;1.60;;;19.50;79.30;;;;;;5008000;28;20598;-72
2021/05/04 10:10:57;;;;;;;4.85;1.90;;;19.70;78.60;;;;;;5024609;28;20061;-72
2021/05/04 10:13:26;;;;;;;6.53;2.20;;;19.50;79.30;;;;;;5011182;28;20026;-72
2021/05/04 10:15:52;;;;;;;6.43;2.05;;;19.70;76.40;;;;;;5010741;28;20946;-72
2021/05/04 10:18:19;;;;;;;4.20;1.75;;;19.80;80.00;;;;;;5024618;28;20101;-72
2021/05/04 10:20:46;;;;;;;4.60;1.80;;;19.70;77.90;;;;;;5024705;28;20104;-72
2021/05/04 10:23:12;;;;;;;3.80;1.52;;;19.20;76.10;;;;;;5015272;28;20026;-72
2021/05/04 10:25:40;;;;;;;4.88;1.75;;;19.30;79.20;;;;;;5004978;28;20076;-72
2021/05/04 10:28:07;;;;;;;4.65;2.03;;;19.10;77.30;;;;;;5004582;28;20030;-72
2021/05/04 10:30:35;;;;;;;6.30;1.95;;;19.30;77.30;;;;;;5004874;28;20026;-73
2021/05/04 10:33:08;;;;;;;4.75;1.50;;;19.60;78.60;;;;;;5004445;28;20041;-72
2021/05/04 10:35:45;;;;;;;3.70;1.70;;;19.60;79.70;;;;;;5004950;28;20056;-72
2021/05/04 10:38:18;;;;;;;4.28;1.70;;;19.70;78.40;;;;;;5004322;28;20021;-72
2021/05/04 10:40:45;;;;;;;6.18;2.10;;;20.30;78.70;;;;;;5004762;28;20037;-71
2021/05/04 10:43:23;;;;;;;4.20;1.90;;;20.40;74.30;;;;;;5013266;28;20030;-73
2021/05/04 10:45:50;;;;;;;6.22;1.83;;;20.10;76.40;;;;;;5024352;28;20056;-72
2021/05/04 10:48:17;;;;;;;6.18;1.45;;;19.80;76.20;;;;;;5023641;28;20148;-72
2021/05/04 10:50:49;;;;;;;4.65;1.60;;;19.80;74.50;;;;;;5024188;28;20471;-72
2021/05/04 10:53:17;;;;;;;5.97;1.58;;;19.90;76.40;;;;;;5022559;28;20025;-72
2021/05/04 10:55:54;;;;;;;4.40;1.60;;;19.90;77.90;;;;;;5024342;28;20029;-73
2021/05/04 10:58:21;;;;;;;4.68;1.80;;;19.60;76.60;;;;;;5009744;28;20056;-73
2021/05/04 11:00:50;;;;;;;7.28;1.50;;;19.30;75.00;;;;;;5018606;28;20930;-72
2021/05/04 11:03:34;;;;;;;9.60;2.20;;;19.40;76.30;;;;;;5024203;28;20033;-72
2021/05/04 11:06:01;;;;;;;3.20;1.27;;;19.20;74.70;;;;;;5024106;28;20453;-72
2021/05/04 11:08:44;;;;;;;4.88;1.55;;;19.20;75.60;;;;;;5012799;28;20069;-72
2021/05/04 11:11:39;;;;;;;2.88;1.27;;;19.80;74.80;;;;;;5004517;28;20030;-72
2021/05/04 11:14:15;;;;;;;5.80;3.85;;;19.70;72.50;;;;;;5004362;28;20060;-72
2021/05/04 11:16:47;;;;;;;5.45;1.58;;;19.90;74.80;;;;;;5009177;28;20018;-72
2021/05/04 11:19:18;;;;;;;4.22;1.38;;;19.70;74.30;;;;;;5009247;28;20037;-72
2021/05/04 11:21:47;;;;;;;5.57;1.40;;;19.60;74.20;;;;;;5004436;28;20062;-72
2021/05/04 11:24:21;;;;;;;4.82;1.67;;;19.50;74.30;;;;;;5003704;28;20049;-72
2021/05/04 11:26:56;;;;;;;4.85;2.08;;;19.50;76.20;;;;;;5005454;28;20083;-72
2021/05/04 11:29:39;;;;;;;6.10;1.52;;;19.90;73.50;;;;;;5008295;28;20034;-72
2021/05/04 11:32:35;;;;;;;2.03;1.10;;;20.10;76.70;;;;;;5007750;28;20481;-72
2021/05/04 11:35:02;;;;;;;3.25;1.50;;;19.80;72.50;;;;;;5024339;28;20026;-72
2021/05/04 11:37:29;;;;;;;6.40;1.40;;;20.00;72.50;;;;;;5028062;28;20076;-72
2021/05/04 11:39:57;;;;;;;3.75;1.55;;;19.70;72.40;;;;;;5027473;28;20033;-72
2021/05/04 11:42:26;;;;;;;3.72;1.60;;;19.30;73.50;;;;;;5020030;28;20054;-72
2021/05/04 11:44:52;;;;;;;4.18;1.70;;;19.20;74.20;;;;;;5007699;28;20582;-72
2021/05/04 11:47:27;;;;;;;4.13;1.45;;;19.80;72.50;;;;;;5007658;28;20100;-72
2021/05/04 11:50:16;;;;;;;4.22;1.30;;;20.00;73.40;;;;;;5007453;28;20522;-72
2021/05/04 11:52:45;;;;;;;5.18;1.40;;;19.90;70.70;;;;;;5013810;28;20608;-73
2021/05/04 11:55:12;;;;;;;4.00;1.48;;;19.80;73.90;;;;;;5026612;28;20365;-72
2021/05/04 11:57:39;;;;;;;3.92;1.83;;;19.80;74.70;;;;;;5027644;28;20033;-72
2021/05/04 12:00:07;;;;;;;3.03;1.25;;;19.60;73.10;;;;;;5027368;28;20030;-72
2021/05/04 12:02:34;;;;;;;4.38;1.65;;;19.30;74.40;;;;;;5025647;28;20036;-74
2021/05/04 12:05:00;;;;;;;4.97;1.15;;;19.50;76.40;;;;;;5027016;28;20396;-74
2021/05/04 12:07:52;;;;;;;3.97;2.03;;;19.40;73.70;;;;;;5023939;28;20026;-73
2021/05/04 12:10:17;;;;;;;6.30;1.70;;;19.30;74.30;;;;;;5006668;28;20057;-72
2021/05/04 12:12:47;;;;;;;3.80;1.77;;;19.20;73.30;;;;;;5007821;28;20053;-72
2021/05/04 12:15:17;;;;;;;7.03;1.90;;;19.40;72.60;;;;;;5007029;28;20116;-72
2021/05/04 12:17:53;;;;;;;4.80;1.10;;;19.70;72.00;;;;;;5017752;28;20095;-72
2021/05/04 12:20:20;;;;;;;6.80;2.05;;;19.60;74.60;;;;;;5026606;28;20025;-72
2021/05/04 12:22:54;;;;;;;2.22;1.30;;;19.50;75.20;;;;;;5026559;28;20542;-73
2021/05/04 12:25:28;;;;;;;;;;;19.60;73.90;;;;;;5015936;28;20022;-72
2021/05/04 12:27:55;;;;;;;3.65;2.08;;;19.50;73.30;;;;;;5006831;28;19905;-72
2021/05/04 12:30:23;;;;;;;4.50;1.98;;;19.40;73.80;;;;;;5006786;28;20504;-72
2021/05/04 12:32:50;;;;;;;4.07;1.98;;;19.70;72.90;;;;;;5006944;28;20413;-72
2021/05/04 12:35:32;;;;;;;4.22;1.67;;;19.60;72.10;;;;;;5007096;28;20022;-72
2021/05/04 12:38:04;;;;;;;3.70;1.65;;;19.50;74.10;;;;;;5008469;28;20020;-73
2021/05/04 12:40:29;;;;;;;4.28;2.05;;;19.40;72.60;;;;;;5026624;28;20384;-73
2021/05/04 12:43:15;;;;;;;6.18;2.05;;;19.70;73.00;;;;;;5010449;28;20045;-72
2021/05/04 12:46:02;;;;;;;7.25;2.75;;;19.50;71.70;;;;;;5006687;28;20025;-72
2021/05/04 12:48:29;;;;;;;5.00;1.63;;;19.30;72.80;;;;;;5006769;28;20042;-72
2021/05/04 12:50:59;;;;;;;4.22;1.80;;;19.30;73.30;;;;;;5006663;28;20026;-72
2021/05/04 12:53:36;;;;;;;4.10;1.95;;;19.20;73.60;;;;;;5006541;28;20480;-74
2021/05/04 12:56:13;;;;;;;6.97;2.03;;;19.20;74.50;;;;;;5006049;28;20025;-72